Spanish Lake, Missouri
Current Conditions -  °F | °C
As of 9:45 PM on Friday 24 Oct 2014 (Local Time) from KALN Reporting Station
Scattered Clouds Scattered Clouds  
Wind Chill: 61°   Ceiling: Unl
Heat Index: 61°   Visibility: 10mi
Dew Point: 48°   Wind: 6mph
Humidity: 63%   Direction: 170°S
Pressure: 30"   Gusts: NA
Location:  38.7995°N, 90.1891°W
Report Text: KALN 250245Z 17005KT 10SM SCT250 16/09 A3000
Loading
Personal Weather Stations






























Interactive Weather Map New forecast layout! Learn more

10-Day Weather Forecast

Advertisements
Track Severe Weather on mobile